Time;durP1;ratioP1;P1;durP2;ratioP2;P2;SDS_P1;SDS_P2;PMS_P1;PMS_P2;Temp;Humidity;BMP_temperature;BMP_pressure;BME280_temperature;BME280_humidity;BME280_pressure;Samples;Min_cycle;Max_cycle;Signal;HPM_P1;HPM_P2
2021/01/14 00:00:40;;;;;;;;;28.00;13.00;;;;;-0.09;79.43;98949.69;5015636;28;8862;-58
2021/01/14 00:03:12;;;;;;;;;29.75;15.00;;;;;-0.06;80.05;98949.59;5039369;28;8855;-58
2021/01/14 00:05:40;;;;;;;;;20.75;16.75;;;;;-0.01;79.11;98942.41;5021838;28;9577;-58
2021/01/14 00:08:09;;;;;;;;;22.00;21.50;;;;;-0.32;79.78;98943.31;5020457;28;8843;-57
2021/01/14 00:10:36;;;;;;;;;20.00;12.00;;;;;-0.12;79.47;98939.22;5014601;28;8885;-56
2021/01/14 00:13:08;;;;;;;;;31.25;19.00;;;;;-0.04;79.10;98937.22;5017131;28;8885;-58
2021/01/14 00:15:35;;;;;;;;;22.50;21.75;;;;;-0.07;78.38;98938.19;5027701;28;8829;-56
2021/01/14 00:18:03;;;;;;;;;27.00;23.00;;;;;-0.39;80.51;98936.50;5019346;28;8865;-57
2021/01/14 00:20:30;;;;;;;;;22.25;14.75;;;;;-0.42;79.91;98939.25;5020516;28;8989;-58
2021/01/14 00:22:57;;;;;;;;;17.00;15.25;;;;;-0.30;80.24;98936.22;5022274;28;8961;-58
2021/01/14 00:25:24;;;;;;;;;29.75;17.50;;;;;-0.38;80.26;98937.38;5019750;28;8928;-58
2021/01/14 00:27:52;;;;;;;;;27.75;21.75;;;;;-0.15;80.16;98942.81;5021174;28;9556;-58
2021/01/14 00:30:27;;;;;;;;;28.25;21.25;;;;;-0.33;80.67;98938.09;5026054;28;8835;-56
2021/01/14 00:32:56;;;;;;;;;32.00;19.00;;;;;-0.53;80.63;98931.63;5018726;28;8855;-55
2021/01/14 00:35:26;;;;;;;;;32.50;23.75;;;;;-0.49;81.46;98927.13;5018137;28;8859;-56
2021/01/14 00:37:53;;;;;;;;;27.50;24.25;;;;;-0.31;80.41;98931.00;5021040;28;8969;-57
2021/01/14 00:40:33;;;;;;;;;29.00;19.00;;;;;-0.49;81.22;98929.78;5023047;28;8821;-57
2021/01/14 00:43:12;;;;;;;;;51.50;30.75;;;;;-0.52;80.96;98914.03;5021535;28;8950;-57
2021/01/14 00:45:39;;;;;;;;;38.50;30.25;;;;;-0.56;80.98;98913.25;5019082;28;8848;-57
2021/01/14 00:48:07;;;;;;;;;34.00;27.75;;;;;-0.61;80.98;98909.03;5019950;28;8898;-57
2021/01/14 00:50:34;;;;;;;;;37.50;32.50;;;;;-0.50;81.43;98906.94;5019711;28;8835;-57
2021/01/14 00:53:01;;;;;;;;;39.50;30.50;;;;;-0.47;80.60;98907.72;5015705;28;8842;-57
2021/01/14 00:55:28;;;;;;;;;50.25;38.50;;;;;-0.32;81.30;98902.88;5011552;28;8835;-57
2021/01/14 00:57:55;;;;;;;;;41.25;29.50;;;;;-0.62;81.71;98900.25;5016681;28;8835;-56
2021/01/14 01:00:23;;;;;;;;;44.25;34.25;;;;;-0.47;81.54;98896.31;5019283;28;8921;-56
2021/01/14 01:02:53;;;;;;;;;34.75;26.25;;;;;-0.65;82.17;98899.50;5019236;28;8839;-56
2021/01/14 01:05:22;;;;;;;;;47.50;29.75;;;;;-0.22;80.98;98913.13;5022013;28;8854;-58
2021/01/14 01:07:52;;;;;;;;;45.50;31.50;;;;;-0.32;80.39;98909.03;5019572;28;8863;-56
2021/01/14 01:10:20;;;;;;;;;43.75;30.50;;;;;-0.39;80.59;98915.41;5011779;28;8827;-57
2021/01/14 01:12:56;;;;;;;;;58.75;36.25;;;;;-0.32;80.55;98916.94;5024007;28;8836;-56
2021/01/14 01:15:24;;;;;;;;;51.75;37.00;;;;;-0.19;79.79;98912.16;5009890;28;8918;-57
2021/01/14 01:17:52;;;;;;;;;31.50;27.25;;;;;-0.12;79.52;98911.06;5020691;28;8872;-58
2021/01/14 01:20:19;;;;;;;;;36.25;31.00;;;;;-0.46;81.26;98914.72;5022240;28;8858;-57
2021/01/14 01:22:46;;;;;;;;;51.00;30.75;;;;;-0.45;80.95;98905.03;5012931;28;8953;-54
2021/01/14 01:25:13;;;;;;;;;43.00;31.00;;;;;-0.27;80.12;98914.16;5019085;28;8840;-56
2021/01/14 01:27:41;;;;;;;;;41.25;28.00;;;;;-0.41;80.15;98909.31;5034984;28;8850;-56
2021/01/14 01:30:09;;;;;;;;;41.75;35.50;;;;;-0.46;80.71;98920.00;5011935;28;8851;-56
2021/01/14 01:32:36;;;;;;;;;45.00;37.25;;;;;-0.52;80.56;98921.97;5013770;28;8842;-57
2021/01/14 01:35:05;;;;;;;;;44.75;34.50;;;;;-0.16;79.72;98917.34;5020754;28;8938;-57
2021/01/14 01:37:32;;;;;;;;;50.75;34.00;;;;;0.02;78.41;98905.34;5021418;28;8859;-56
2021/01/14 01:39:59;;;;;;;;;58.50;42.25;;;;;-0.08;78.61;98909.19;5022124;28;8848;-57
2021/01/14 01:42:26;;;;;;;;;55.50;39.50;;;;;-0.05;78.01;98902.06;5013242;28;8846;-58
2021/01/14 01:44:53;;;;;;;;;47.50;33.25;;;;;-0.01;78.00;98911.59;5020534;28;8850;-58
2021/01/14 01:47:32;;;;;;;;;56.75;41.50;;;;;-0.02;78.10;98906.38;5011029;28;8902;-58
2021/01/14 01:50:06;;;;;;;;;50.75;37.50;;;;;0.08;78.61;98907.81;5022583;28;8995;-56
2021/01/14 01:52:34;;;;;;;;;36.50;28.50;;;;;0.29;77.40;98914.19;5031250;28;9343;-58
2021/01/14 01:55:03;;;;;;;;;48.75;37.75;;;;;0.04;78.03;98913.25;5015223;28;8945;-58
2021/01/14 01:57:31;;;;;;;;;59.00;40.00;;;;;0.06;78.30;98914.91;5038288;28;8836;-58
2021/01/14 01:59:58;;;;;;;;;45.00;32.00;;;;;-0.10;78.89;98911.91;5022862;28;8883;-58
2021/01/14 02:02:29;;;;;;;;;50.50;39.75;;;;;-0.05;79.84;98906.47;5037504;28;8861;-57
2021/01/14 02:04:57;;;;;;;;;42.50;38.00;;;;;-0.08;80.48;98893.34;5024759;28;8839;-56
2021/01/14 02:07:39;;;;;;;;;46.25;34.50;;;;;-0.24;81.05;98900.88;5019181;28;8843;-58
2021/01/14 02:10:34;;;;;;;;;45.00;35.00;;;;;-0.03;80.21;98894.97;5017256;28;8851;-58
2021/01/14 02:13:26;;;;;;;;;42.25;35.25;;;;;-0.19;80.71;98898.09;5040517;28;9579;-57
2021/01/14 02:16:00;;;;;;;;;51.75;29.50;;;;;-0.17;80.74;98893.66;5015433;28;8851;-58
2021/01/14 02:18:29;;;;;;;;;47.25;36.50;;;;;-0.06;80.97;98892.41;5020845;28;8839;-58
2021/01/14 02:21:08;;;;;;;;;52.50;31.00;;;;;0.01;81.24;98892.22;5020946;28;9002;-58
2021/01/14 02:23:46;;;;;;;;;44.00;28.00;;;;;-0.16;81.96;98887.47;5036073;28;8840;-56
2021/01/14 02:26:23;;;;;;;;;45.75;33.00;;;;;-0.08;81.96;98882.81;5009047;28;8830;-58
2021/01/14 02:28:53;;;;;;;;;33.25;28.25;;;;;-0.22;81.96;98865.63;5021155;28;8847;-58
2021/01/14 02:31:22;;;;;;;;;44.25;34.50;;;;;-0.21;82.23;98877.06;5012614;28;8863;-58
2021/01/14 02:33:52;;;;;;;;;39.50;31.00;;;;;0.06;81.61;98866.56;5016859;28;9537;-58
2021/01/14 02:36:24;;;;;;;;;49.50;40.50;;;;;0.05;83.19;98855.13;5018830;28;8935;-57
2021/01/14 02:38:52;;;;;;;;;33.00;28.00;;;;;0.13;81.77;98850.47;5040812;28;8823;-59
2021/01/14 02:41:20;;;;;;;;;29.00;23.00;;;;;-0.09;81.93;98845.00;5012827;28;8863;-59
2021/01/14 02:43:47;;;;;;;;;38.75;25.50;;;;;-0.20;83.56;98843.63;5012750;28;8961;-59
2021/01/14 02:46:16;;;;;;;;;31.00;26.00;;;;;0.06;82.35;98834.88;5019494;28;8836;-57
2021/01/14 02:48:58;;;;;;;;;37.00;30.25;;;;;-0.15;83.90;98823.25;5039971;28;8856;-58
2021/01/14 02:51:43;;;;;;;;;37.75;24.25;;;;;-0.23;84.88;98826.13;5022681;28;8891;-58
2021/01/14 02:54:13;;;;;;;;;35.75;28.00;;;;;-0.22;85.49;98814.66;5021220;28;8858;-56
2021/01/14 02:56:41;;;;;;;;;37.50;25.50;;;;;-0.24;85.04;98820.00;5019973;28;8863;-57
2021/01/14 02:59:11;;;;;;;;;26.25;22.00;;;;;0.18;83.39;98811.56;5020962;28;8847;-58
2021/01/14 03:01:38;;;;;;;;;34.75;28.75;;;;;-0.05;83.52;98804.44;5021039;28;8874;-58
2021/01/14 03:04:08;;;;;;;;;29.25;25.25;;;;;-0.14;83.49;98793.31;5023507;28;8844;-58
2021/01/14 03:06:36;;;;;;;;;30.00;24.00;;;;;-0.13;83.28;98781.84;5035621;28;8861;-57
2021/01/14 03:09:04;;;;;;;;;31.75;27.00;;;;;-0.07;82.90;98782.50;5018499;28;8845;-58
2021/01/14 03:11:35;;;;;;;;;31.75;27.75;;;;;-0.01;81.86;98774.38;5019300;28;8864;-57
2021/01/14 03:14:03;;;;;;;;;31.25;21.25;;;;;-0.08;82.32;98769.34;5022505;28;8966;-57
2021/01/14 03:16:37;;;;;;;;;26.75;21.00;;;;;-0.02;81.38;98763.91;5020247;28;8851;-58
2021/01/14 03:19:04;;;;;;;;;29.50;22.50;;;;;0.06;80.96;98767.13;5027640;28;8866;-58
2021/01/14 03:21:31;;;;;;;;;36.33;25.00;;;;;0.12;81.65;98764.28;4994211;28;731990;-58
2021/01/14 03:23:59;;;;;;;;;26.75;23.00;;;;;-0.02;81.51;98755.97;5021037;28;8846;-58
2021/01/14 03:26:26;;;;;;;;;31.75;21.25;;;;;0.01;81.67;98757.66;5013330;28;8827;-58
2021/01/14 03:28:53;;;;;;;;;27.50;21.00;;;;;-0.16;82.71;98758.19;5020679;28;8982;-56
2021/01/14 03:31:20;;;;;;;;;28.50;20.50;;;;;0.29;81.79;98755.78;5012655;28;8879;-57
2021/01/14 03:33:49;;;;;;;;;31.25;22.25;;;;;-0.09;81.33;98752.66;5038473;28;8916;-58
2021/01/14 03:36:19;;;;;;;;;73.50;59.00;;;;;0.18;81.15;98752.66;5023103;28;8838;-58
2021/01/14 03:38:47;;;;;;;;;71.75;52.25;;;;;-0.17;82.10;98751.22;5018090;28;8843;-58
2021/01/14 03:41:17;;;;;;;;;29.00;26.00;;;;;-0.10;82.09;98748.31;5033402;28;8942;-58
2021/01/14 03:43:45;;;;;;;;;71.00;57.75;;;;;0.01;82.51;98749.75;5020127;28;9580;-58
2021/01/14 03:46:21;;;;;;;;;30.75;27.50;;;;;-0.27;83.08;98735.69;5013651;28;8835;-58
2021/01/14 03:48:49;;;;;;;;;27.50;23.50;;;;;-0.23;82.90;98739.09;5029055;28;8858;-58
2021/01/14 03:51:21;;;;;;;;;29.25;23.50;;;;;-0.24;83.90;98730.31;5012491;28;9600;-58
2021/01/14 03:53:52;;;;;;;;;36.50;25.50;;;;;-0.18;83.82;98733.69;5013173;28;8858;-58
2021/01/14 03:56:19;;;;;;;;;23.25;15.00;;;;;-0.18;85.02;98725.75;5013062;28;8839;-57
2021/01/14 03:58:46;;;;;;;;;22.50;18.75;;;;;-0.07;84.85;98727.09;5012943;28;8893;-58
2021/01/14 04:01:13;;;;;;;;;6.75;0.25;;;;;-0.15;86.10;98729.16;5012790;28;8839;-58
2021/01/14 04:03:41;;;;;;;;;23.50;19.00;;;;;-0.21;86.77;98732.00;5012992;28;8855;-58
2021/01/14 04:06:12;;;;;;;;;23.50;15.50;;;;;0.01;86.39;98724.22;5028706;28;8851;-58
2021/01/14 04:08:40;;;;;;;;;21.75;16.50;;;;;-0.38;87.11;98714.06;5013037;28;8862;-58
2021/01/14 04:11:10;;;;;;;;;23.50;16.00;;;;;-0.33;87.45;98717.44;5012992;28;8839;-58
2021/01/14 04:13:37;;;;;;;;;16.75;13.50;;;;;-0.13;87.92;98716.78;5028007;28;8811;-58
2021/01/14 04:16:11;;;;;;;;;25.25;20.00;;;;;-0.04;86.97;98710.31;5013174;28;8851;-58
2021/01/14 04:18:38;;;;;;;;;21.75;18.25;;;;;-0.34;88.07;98707.81;5012821;28;8843;-58
2021/01/14 04:21:05;;;;;;;;;26.00;18.50;;;;;-0.40;88.36;98709.75;5012747;28;8874;-58
2021/01/14 04:23:32;;;;;;;;;24.00;19.00;;;;;-0.26;88.36;98708.41;5012666;28;8881;-58
2021/01/14 04:25:59;;;;;;;;;25.00;18.25;;;;;-0.49;88.59;98703.03;5013273;28;8912;-58
2021/01/14 04:28:26;;;;;;;;;26.00;19.00;;;;;-0.45;88.26;98697.63;5012844;28;8867;-58
2021/01/14 04:30:53;;;;;;;;;34.50;26.75;;;;;-0.26;88.99;98689.94;5012973;28;8838;-58
2021/01/14 04:33:20;;;;;;;;;23.25;20.75;;;;;-0.60;88.72;98684.94;5012165;28;8839;-58
2021/01/14 04:36:00;;;;;;;;;25.50;18.50;;;;;-0.68;88.85;98685.19;5013002;28;8835;-57
2021/01/14 04:38:29;;;;;;;;;43.25;26.00;;;;;-0.76;89.22;98678.44;5012161;28;8933;-59
2021/01/14 04:41:02;;;;;;;;;25.75;18.25;;;;;-0.90;89.53;98671.81;5012215;28;8883;-58
2021/01/14 04:43:32;;;;;;;;;35.50;26.00;;;;;-0.84;89.53;98676.03;5012250;28;8938;-58
2021/01/14 04:46:08;;;;;;;;;44.00;33.00;;;;;-0.85;89.19;98678.72;5012379;28;8847;-59
2021/01/14 04:48:45;;;;;;;;;44.00;34.00;;;;;-0.91;89.64;98663.97;5012521;28;8839;-58
2021/01/14 04:51:18;;;;;;;;;41.50;30.25;;;;;-0.87;90.11;98662.94;5012457;28;8881;-58
2021/01/14 04:53:48;;;;;;;;;33.00;27.50;;;;;-0.99;89.79;98658.94;5012234;28;9583;-58
2021/01/14 04:56:17;;;;;;;;;37.75;30.75;;;;;-1.01;90.22;98652.84;5012475;28;8869;-58
2021/01/14 04:58:49;;;;;;;;;46.75;36.75;;;;;-0.91;90.12;98656.91;5011644;28;8835;-57
2021/01/14 05:01:24;;;;;;;;;42.50;33.25;;;;;-0.92;90.28;98654.34;5012307;28;8879;-58
2021/01/14 05:03:53;;;;;;;;;34.25;30.50;;;;;-0.77;90.25;98652.97;5012676;28;8866;-58
2021/01/14 05:06:25;;;;;;;;;37.75;29.50;;;;;-1.02;90.60;98660.81;5012577;28;8969;-58
2021/01/14 05:09:07;;;;;;;;;35.25;28.00;;;;;-0.62;90.00;98660.38;5011324;28;8874;-58
2021/01/14 05:11:45;;;;;;;;;50.75;34.00;;;;;-0.84;90.09;98660.22;4992375;28;8980;-58
2021/01/14 05:14:12;;;;;;;;;53.00;34.50;;;;;-0.84;90.37;98662.88;5010926;28;8875;-57
2021/01/14 05:16:39;;;;;;;;;42.50;35.50;;;;;-1.00;90.27;98670.41;5012513;28;8831;-59
2021/01/14 05:19:06;;;;;;;;;42.25;34.00;;;;;-0.95;90.85;98657.06;5023841;28;8865;-58
2021/01/14 05:21:34;;;;;;;;;44.00;31.75;;;;;-0.92;90.36;98651.72;4992125;28;8887;-59
2021/01/14 05:24:15;;;;;;;;;54.75;43.25;;;;;-0.76;90.57;98646.81;4996880;28;8861;-58
2021/01/14 05:26:46;;;;;;;;;48.75;34.00;;;;;-0.88;90.89;98637.50;5011622;28;8866;-58
2021/01/14 05:29:21;;;;;;;;;49.50;38.50;;;;;-0.85;90.22;98636.56;5012297;28;8831;-57
2021/01/14 05:31:50;;;;;;;;;43.50;30.25;;;;;-0.60;89.71;98636.63;5027266;28;8869;-58
2021/01/14 05:34:18;;;;;;;;;62.75;41.25;;;;;-0.67;89.93;98642.06;5012240;28;8852;-58
2021/01/14 05:37:02;;;;;;;;;39.00;24.75;;;;;-0.63;89.64;98652.50;5011682;28;8839;-58
2021/01/14 05:39:42;;;;;;;;;48.00;38.75;;;;;-0.71;89.23;98644.84;5011721;28;8929;-58
2021/01/14 05:42:10;;;;;;;;;33.25;25.50;;;;;-0.62;89.81;98638.44;5011516;28;8855;-58
2021/01/14 05:44:44;;;;;;;;;57.50;38.50;;;;;-0.59;88.99;98648.88;5011928;28;9620;-58
2021/01/14 05:47:41;;;;;;;;;57.25;44.50;;;;;-0.64;88.50;98646.38;5012153;28;8839;-58
2021/01/14 05:50:08;;;;;;;;;58.50;41.75;;;;;-0.65;88.95;98644.69;5011119;28;8878;-57
2021/01/14 05:52:35;;;;;;;;;59.00;42.25;;;;;-0.63;89.01;98640.22;5011687;28;8858;-58
2021/01/14 05:55:10;;;;;;;;;62.50;45.00;;;;;-0.67;89.39;98639.44;5012004;28;9018;-58
2021/01/14 05:57:39;;;;;;;;;58.75;37.50;;;;;-0.61;88.43;98642.78;5011289;28;8843;-59
2021/01/14 06:00:12;;;;;;;;;64.25;40.25;;;;;-0.34;87.29;98641.88;5023257;28;8853;-58
2021/01/14 06:02:40;;;;;;;;;63.75;37.50;;;;;-0.45;88.11;98636.97;4991615;28;8861;-58
2021/01/14 06:05:33;;;;;;;;;39.25;37.00;;;;;-0.39;88.55;98645.59;4991507;28;8892;-58
2021/01/14 06:08:02;;;;;;;;;44.50;38.50;;;;;-0.27;87.70;98635.44;4993882;28;9681;-58
2021/01/14 06:10:34;;;;;;;;;44.25;33.50;;;;;-0.46;87.83;98648.41;5011093;28;8948;-56
2021/01/14 06:13:01;;;;;;;;;45.75;42.00;;;;;-0.43;87.70;98638.69;5026503;28;8831;-57
2021/01/14 06:15:28;;;;;;;;;60.00;45.00;;;;;-0.21;87.72;98631.78;5011403;28;8855;-57
2021/01/14 06:17:55;;;;;;;;;46.75;41.75;;;;;-0.42;87.56;98641.28;5011431;28;8875;-58
2021/01/14 06:20:22;;;;;;;;;42.00;32.00;;;;;-0.30;87.64;98646.13;5022640;28;8900;-58
2021/01/14 06:22:49;;;;;;;;;58.50;43.25;;;;;-0.39;87.97;98649.06;5023269;28;8870;-58
2021/01/14 06:25:16;;;;;;;;;47.25;31.00;;;;;-0.26;88.23;98654.81;5026909;28;9599;-58
2021/01/14 06:27:55;;;;;;;;;45.75;33.50;;;;;-0.50;89.60;98654.72;5011413;28;8894;-58
2021/01/14 06:30:23;;;;;;;;;55.50;45.00;;;;;-0.45;90.00;98657.19;5011252;28;8893;-57
2021/01/14 06:33:10;;;;;;;;;57.00;39.50;;;;;-0.45;90.96;98657.19;5027262;28;9575;-58
2021/01/14 06:35:37;;;;;;;;;47.75;33.50;;;;;-0.41;91.01;98647.41;5009325;28;8867;-58
2021/01/14 06:38:10;;;;;;;;;59.50;46.50;;;;;-0.46;91.37;98656.31;4995978;28;8847;-58
2021/01/14 06:40:45;;;;;;;;;69.00;37.50;;;;;-0.38;91.12;98657.84;5030275;28;8997;-58
2021/01/14 06:43:17;;;;;;;;;62.50;45.00;;;;;-0.20;91.62;98656.34;4997602;28;9658;-58
2021/01/14 06:45:56;;;;;;;;;65.25;44.00;;;;;-0.50;91.11;98653.81;5013968;28;8811;-58
2021/01/14 06:48:30;;;;;;;;;62.00;47.75;;;;;-0.55;91.70;98647.88;5030320;28;8878;-58
2021/01/14 06:51:04;;;;;;;;;60.50;46.75;;;;;-0.57;91.09;98649.69;5029359;28;8843;-58
2021/01/14 06:53:31;;;;;;;;;69.50;47.00;;;;;-0.54;91.74;98652.22;5030099;28;8854;-59
2021/01/14 06:55:59;;;;;;;;;47.75;35.25;;;;;-0.48;91.93;98647.59;5029743;28;8868;-59
2021/01/14 06:58:30;;;;;;;;;52.00;34.25;;;;;-0.55;91.42;98650.50;5013516;28;8929;-57
2021/01/14 07:01:02;;;;;;;;;69.50;47.25;;;;;-0.43;90.63;98650.09;5036742;28;8836;-58
2021/01/14 07:04:03;;;;;;;;;66.75;48.75;;;;;-0.55;90.58;98653.16;5034551;28;8852;-58
2021/01/14 07:06:37;;;;;;;;;61.00;45.50;;;;;-0.54;90.53;98657.50;5033928;28;9574;-58
2021/01/14 07:09:20;;;;;;;;;70.75;48.75;;;;;-0.60;90.28;98652.44;5041604;28;8852;-56
2021/01/14 07:11:49;;;;;;;;;75.00;56.75;;;;;-0.49;89.59;98650.31;5010105;28;8939;-58
2021/01/14 07:14:26;;;;;;;;;60.25;45.75;;;;;-0.72;90.38;98654.53;5010281;28;8842;-58
2021/01/14 07:16:59;;;;;;;;;66.00;48.50;;;;;-0.59;90.71;98649.72;4994262;28;8853;-58
2021/01/14 07:19:26;;;;;;;;;63.75;48.50;;;;;-0.46;90.24;98650.19;5007477;28;8869;-58
2021/01/14 07:21:53;;;;;;;;;54.75;41.00;;;;;-0.58;90.34;98642.69;5013658;28;8909;-58
2021/01/14 07:24:29;;;;;;;;;53.25;43.75;;;;;-0.33;90.15;98646.22;5013728;28;8839;-57
2021/01/14 07:26:59;;;;;;;;;57.50;46.00;;;;;-0.55;90.40;98639.97;5029154;28;8859;-57
2021/01/14 07:29:33;;;;;;;;;63.00;48.50;;;;;-0.54;91.02;98631.13;5014236;28;8957;-57
2021/01/14 07:32:01;;;;;;;;;57.25;39.25;;;;;-0.48;90.24;98636.19;5013574;28;8884;-57
2021/01/14 07:34:46;;;;;;;;;59.75;40.00;;;;;-0.34;89.84;98623.41;5013539;28;8831;-58
2021/01/14 07:37:18;;;;;;;;;56.25;44.25;;;;;-0.75;90.36;98630.94;5013644;28;8875;-58
2021/01/14 07:39:58;;;;;;;;;69.25;44.75;;;;;-0.55;90.78;98638.19;5013559;28;8879;-57
2021/01/14 07:42:35;;;;;;;;;66.25;47.75;;;;;-0.53;90.14;98623.16;5013810;28;8859;-58
2021/01/14 07:45:04;;;;;;;;;60.50;48.50;;;;;-0.75;90.67;98633.56;5013717;28;8973;-58
2021/01/14 07:47:38;;;;;;;;;64.00;46.00;;;;;-0.77;90.67;98643.28;5013735;28;8843;-56
2021/01/14 07:50:26;;;;;;;;;72.50;49.00;;;;;-0.30;90.40;98647.91;5012259;28;8863;-58
2021/01/14 07:52:58;;;;;;;;;79.00;54.75;;;;;-0.35;90.23;98645.41;5013720;28;9607;-58
2021/01/14 07:55:34;;;;;;;;;78.00;58.00;;;;;-0.38;90.79;98648.16;5013359;28;8843;-58
2021/01/14 07:58:31;;;;;;;;;69.50;52.50;;;;;-0.29;89.43;98642.59;5013860;28;8855;-57
2021/01/14 08:01:05;;;;;;;;;76.00;53.50;;;;;-0.16;89.32;98639.50;5012984;28;8858;-56
2021/01/14 08:03:45;;;;;;;;;64.50;49.00;;;;;-0.16;89.97;98640.34;5013290;28;8875;-58
2021/01/14 08:06:27;;;;;;;;;75.25;54.50;;;;;0.00;88.39;98643.34;5012957;28;8873;-56
2021/01/14 08:09:14;;;;;;;;;70.25;53.00;;;;;0.15;87.86;98640.13;5012927;28;8843;-57
2021/01/14 08:11:47;;;;;;;;;68.50;51.50;;;;;0.21;87.96;98639.03;5012622;28;8863;-58
2021/01/14 08:14:18;;;;;;;;;76.00;53.00;;;;;0.21;88.08;98649.59;5013112;28;8865;-57
2021/01/14 08:16:49;;;;;;;;;55.75;44.00;;;;;0.15;88.29;98650.69;5013573;28;8847;-56
2021/01/14 08:19:29;;;;;;;;;51.00;40.00;;;;;0.30;87.09;98635.22;5013081;28;8865;-58
2021/01/14 08:21:58;;;;;;;;;65.00;48.50;;;;;0.51;87.10;98636.19;5012776;28;8879;-56
2021/01/14 08:24:45;;;;;;;;;50.50;34.00;;;;;0.72;86.84;98635.38;5012237;28;9874;-57
2021/01/14 08:27:25;;;;;;;;;57.50;38.00;;;;;0.72;86.03;98632.72;5013133;28;8851;-58
2021/01/14 08:30:01;;;;;;;;;43.50;38.75;;;;;0.78;85.69;98643.03;5012578;28;8878;-58
2021/01/14 08:32:46;;;;;;;;;48.50;30.75;;;;;0.85;85.09;98656.91;5013291;28;8897;-58
2021/01/14 08:35:26;;;;;;;;;29.00;25.50;;;;;0.90;85.19;98662.88;5012737;28;8835;-58
2021/01/14 08:38:00;;;;;;;;;57.25;36.00;;;;;0.90;85.95;98662.00;5012220;28;8859;-59
2021/01/14 08:40:30;;;;;;;;;48.50;38.75;;;;;0.81;85.03;98673.78;5012412;28;8834;-59
2021/01/14 08:43:07;;;;;;;;;34.75;29.00;;;;;0.95;84.33;98673.22;5012315;28;8850;-58
2021/01/14 08:45:46;;;;;;;;;37.25;24.75;;;;;1.00;83.18;98673.91;5012860;28;8953;-58
2021/01/14 08:48:23;;;;;;;;;25.50;22.50;;;;;1.06;83.87;98685.13;5012653;28;8867;-58
2021/01/14 08:50:58;;;;;;;;;28.00;21.00;;;;;1.04;82.91;98684.31;5012464;28;8846;-58
2021/01/14 08:53:34;;;;;;;;;18.75;17.00;;;;;1.10;82.09;98686.72;5012414;28;8850;-58
2021/01/14 08:56:10;;;;;;;;;29.00;21.50;;;;;1.27;82.18;98685.22;5012935;28;8867;-58
2021/01/14 08:58:38;;;;;;;;;22.25;20.25;;;;;0.98;81.65;98692.50;5027722;28;8993;-59
2021/01/14 09:01:16;;;;;;;;;21.00;15.00;;;;;1.05;81.33;98679.88;5012285;28;8826;-60
2021/01/14 09:03:45;;;;;;;;;26.75;18.75;;;;;1.07;80.14;98681.56;5012663;28;8874;-59
2021/01/14 09:06:13;;;;;;;;;16.00;13.50;;;;;1.21;79.48;98688.06;5012017;28;8847;-59
2021/01/14 09:08:40;;;;;;;;;24.50;15.25;;;;;1.06;78.54;98686.91;5011836;28;8855;-59
2021/01/14 09:11:08;;;;;;;;;11.50;11.50;;;;;0.95;78.00;98695.25;5012322;28;8874;-60
2021/01/14 09:13:35;;;;;;;;;17.00;12.00;;;;;1.16;78.17;98693.56;5012387;28;8827;-59
2021/01/14 09:16:11;;;;;;;;;12.50;11.50;;;;;1.14;78.23;98691.91;5012433;28;8858;-60
2021/01/14 09:18:42;;;;;;;;;17.50;14.00;;;;;1.38;78.95;98701.50;5012190;28;8851;-59
2021/01/14 09:21:13;;;;;;;;;36.75;30.75;;;;;1.50;78.44;98700.13;5010905;28;8847;-59
2021/01/14 09:23:40;;;;;;;;;17.00;13.00;;;;;1.26;76.92;98708.16;5011914;28;8967;-60
2021/01/14 09:26:22;;;;;;;;;13.50;10.00;;;;;1.31;76.53;98710.59;5012578;28;8904;-60
2021/01/14 09:28:53;;;;;;;;;32.00;22.75;;;;;1.44;76.92;98705.66;5027146;28;8981;-61
2021/01/14 09:31:21;;;;;;;;;24.50;18.50;;;;;1.72;76.18;98695.69;5012126;28;8913;-60
2021/01/14 09:33:50;;;;;;;;;14.75;13.50;;;;;1.25;75.72;98710.84;5014861;28;8890;-59
2021/01/14 09:36:24;;;;;;;;;80.00;60.50;;;;;1.18;75.77;98696.97;5031811;28;9052;-60
2021/01/14 09:39:01;;;;;;;;;8.50;6.75;;;;;1.03;73.96;98701.09;5029089;28;8839;-59
2021/01/14 09:41:38;;;;;;;;;13.00;10.00;;;;;0.99;74.60;98703.91;5027209;28;8827;-60
2021/01/14 09:44:15;;;;;;;;;12.00;9.00;;;;;1.06;73.56;98706.28;5010446;28;8954;-61
2021/01/14 09:46:47;;;;;;;;;16.00;9.00;;;;;1.16;73.57;98701.50;5023987;28;8847;-61
2021/01/14 09:49:19;;;;;;;;;17.00;10.50;;;;;1.14;74.03;98695.41;5023406;28;8843;-60
2021/01/14 09:51:47;;;;;;;;;14.00;10.00;;;;;1.03;72.05;98710.81;5031377;28;8898;-60
2021/01/14 09:54:14;;;;;;;;;12.75;7.00;;;;;0.97;73.24;98709.25;5026971;28;8874;-60
2021/01/14 09:56:51;;;;;;;;;8.25;7.00;;;;;1.18;72.20;98709.34;5031029;28;8983;-59
2021/01/14 09:59:28;;;;;;;;;4.00;4.00;;;;;1.43;72.07;98717.19;5031352;28;8877;-61
2021/01/14 10:02:06;;;;;;;;;9.00;7.00;;;;;2.00;71.31;98714.81;5012011;28;8831;-60
2021/01/14 10:04:39;;;;;;;;;12.25;10.00;;;;;1.82;71.20;98704.09;5023657;28;8849;-61
2021/01/14 10:07:14;;;;;;;;;10.25;6.75;;;;;1.73;70.62;98713.25;5026329;28;8881;-59
2021/01/14 10:09:41;;;;;;;;;11.75;9.00;;;;;1.44;70.52;98709.16;5010500;28;8871;-60
2021/01/14 10:12:10;;;;;;;;;8.25;6.50;;;;;1.68;70.74;98707.31;5010966;28;8953;-59
2021/01/14 10:14:37;;;;;;;;;7.00;3.00;;;;;1.33;69.96;98703.47;5015433;28;8866;-59
2021/01/14 10:17:15;;;;;;;;;6.75;6.00;;;;;1.44;71.02;98705.66;5027117;28;8885;-59
2021/01/14 10:19:48;;;;;;;;;11.00;6.00;;;;;1.55;70.35;98708.72;5014638;28;8862;-59
2021/01/14 10:22:15;;;;;;;;;10.00;8.00;;;;;1.34;70.52;98714.88;5014906;28;8847;-59
2021/01/14 10:24:43;;;;;;;;;7.25;4.00;;;;;1.44;70.03;98719.75;5014903;28;8932;-59
2021/01/14 10:27:18;;;;;;;;;4.50;4.50;;;;;1.35;69.57;98714.00;5014768;28;8843;-59
2021/01/14 10:29:47;;;;;;;;;1.50;1.50;;;;;1.16;69.94;98716.47;5014212;28;8850;-60
2021/01/14 10:32:23;;;;;;;;;5.00;3.25;;;;;1.36;70.66;98721.84;5014405;28;8878;-60
2021/01/14 10:34:52;;;;;;;;;14.50;9.00;;;;;1.42;71.11;98718.97;5025370;28;8890;-59
2021/01/14 10:37:27;;;;;;;;;12.00;10.50;;;;;1.54;70.67;98715.81;5035300;28;8875;-59
2021/01/14 10:40:00;;;;;;;;;10.50;10.50;;;;;1.83;69.54;98711.09;5038822;28;8954;-60
2021/01/14 10:42:37;;;;;;;;;12.75;10.00;;;;;1.91;69.53;98706.34;5014821;28;8870;-60
2021/01/14 10:45:12;;;;;;;;;6.50;5.50;;;;;1.95;70.88;98707.09;5014991;28;8882;-59
2021/01/14 10:47:41;;;;;;;;;7.75;7.75;;;;;2.25;70.80;98706.69;5015134;28;8866;-58
2021/01/14 10:50:27;;;;;;;;;11.25;6.25;;;;;2.36;69.08;98691.19;5014548;28;8859;-59
2021/01/14 10:52:59;;;;;;;;;10.00;9.00;;;;;2.45;70.11;98695.22;5015039;28;9596;-59
2021/01/14 10:55:27;;;;;;;;;7.00;7.00;;;;;2.34;68.58;98688.63;5014233;28;8877;-56
2021/01/14 10:58:08;;;;;;;;;12.50;8.25;;;;;2.39;67.00;98685.75;5015016;28;8847;-57
2021/01/14 11:00:40;;;;;;;;;6.50;3.75;;;;;2.67;68.70;98689.84;5014310;28;8874;-58
2021/01/14 11:03:14;;;;;;;;;7.75;6.00;;;;;1.97;67.57;98692.88;5015013;28;8869;-60
2021/01/14 11:05:51;;;;;;;;;8.00;5.00;;;;;2.24;68.97;98708.50;5014248;28;9622;-59
2021/01/14 11:08:27;;;;;;;;;6.50;5.25;;;;;2.67;68.62;98695.97;5014285;28;8862;-58
2021/01/14 11:11:04;;;;;;;;;9.00;6.75;;;;;2.52;68.24;98701.97;5030313;28;8890;-60
2021/01/14 11:13:50;;;;;;;;;5.00;4.25;;;;;2.21;68.07;98705.97;5014404;28;8937;-60
2021/01/14 11:16:26;;;;;;;;;10.75;7.00;;;;;2.01;69.50;98719.22;5029758;28;8921;-60
2021/01/14 11:18:58;;;;;;;;;9.00;7.50;;;;;1.76;70.25;98712.28;5014632;28;8857;-60
2021/01/14 11:21:37;;;;;;;;;6.50;4.00;;;;;1.58;71.03;98718.31;5021843;28;8853;-60
2021/01/14 11:24:06;;;;;;;;;11.75;5.75;;;;;1.72;71.33;98710.72;5034117;28;8860;-61
2021/01/14 11:26:33;;;;;;;;;9.00;6.75;;;;;1.65;70.86;98722.44;5034035;28;8840;-60
2021/01/14 11:29:01;;;;;;;;;8.00;6.00;;;;;1.58;70.14;98718.31;5033923;28;8848;-56
2021/01/14 11:31:28;;;;;;;;;10.00;6.50;;;;;1.55;70.69;98727.25;5034270;28;8848;-57
2021/01/14 11:33:55;;;;;;;;;7.00;7.00;;;;;1.61;73.15;98737.59;5033862;28;9545;-58
2021/01/14 11:36:24;;;;;;;;;9.00;7.00;;;;;1.61;71.51;98739.41;5023981;28;8839;-58
2021/01/14 11:38:52;;;;;;;;;6.25;5.50;;;;;1.46;70.38;98749.66;5014035;28;8842;-58
2021/01/14 11:41:21;;;;;;;;;7.00;6.00;;;;;1.99;70.34;98745.75;5014381;28;8885;-59
2021/01/14 11:43:49;;;;;;;;;12.00;7.00;;;;;1.77;70.24;98745.78;5013775;28;8874;-59
2021/01/14 11:46:24;;;;;;;;;7.50;6.00;;;;;1.70;70.03;98747.78;5013230;28;9579;-58
2021/01/14 11:48:52;;;;;;;;;6.00;6.00;;;;;1.78;68.70;98754.56;5013491;28;9596;-58
2021/01/14 11:51:20;;;;;;;;;7.00;4.50;;;;;1.72;68.11;98758.34;5013259;28;8863;-59
2021/01/14 11:53:47;;;;;;;;;8.00;6.00;;;;;1.38;68.25;98757.03;5013040;28;8942;-59